sensor_id;sensor_type;location;lat;lon;timestamp;pressure;altitude;pressure_sealevel;temperature;humidity
51526;BME280;37611;51.794;21.590;2022-12-11T00:01:39;99001.27;;;-1.47;100.00
51526;BME280;37611;51.794;21.590;2022-12-11T00:05:41;98993.81;;;-1.43;100.00
51526;BME280;37611;51.794;21.590;2022-12-11T00:09:43;98986.82;;;-1.44;100.00
51526;BME280;37611;51.794;21.590;2022-12-11T00:13:45;98987.25;;;-1.42;100.00
51526;BME280;37611;51.794;21.590;2022-12-11T00:17:47;98988.71;;;-1.44;100.00
51526;BME280;37611;51.794;21.590;2022-12-11T00:21:48;98991.58;;;-1.46;100.00
51526;BME280;37611;51.794;21.590;2022-12-11T00:25:50;98989.33;;;-1.48;100.00
51526;BME280;37611;51.794;21.590;2022-12-11T00:29:52;98989.60;;;-1.52;100.00
51526;BME280;37611;51.794;21.590;2022-12-11T00:33:54;98989.44;;;-1.55;100.00
51526;BME280;37611;51.794;21.590;2022-12-11T00:37:56;98988.84;;;-1.56;100.00
51526;BME280;37611;51.794;21.590;2022-12-11T00:41:57;98986.03;;;-1.61;100.00
51526;BME280;37611;51.794;21.590;2022-12-11T00:45:59;98982.55;;;-1.60;100.00
51526;BME280;37611;51.794;21.590;2022-12-11T00:50:02;98976.63;;;-1.64;100.00
51526;BME280;37611;51.794;21.590;2022-12-11T00:54:04;98977.94;;;-1.68;100.00
51526;BME280;37611;51.794;21.590;2022-12-11T00:58:07;98978.00;;;-1.69;100.00
51526;BME280;37611;51.794;21.590;2022-12-11T01:02:09;98974.23;;;-1.69;100.00
51526;BME280;37611;51.794;21.590;2022-12-11T01:06:17;98970.95;;;-1.71;100.00
51526;BME280;37611;51.794;21.590;2022-12-11T01:10:20;98974.70;;;-1.74;100.00
51526;BME280;37611;51.794;21.590;2022-12-11T01:14:25;98972.47;;;-1.76;100.00
51526;BME280;37611;51.794;21.590;2022-12-11T01:18:27;98965.79;;;-1.79;100.00
51526;BME280;37611;51.794;21.590;2022-12-11T01:22:29;98962.80;;;-1.81;100.00
51526;BME280;37611;51.794;21.590;2022-12-11T01:26:31;98956.95;;;-1.78;100.00
51526;BME280;37611;51.794;21.590;2022-12-11T01:30:33;98943.78;;;-1.79;100.00
51526;BME280;37611;51.794;21.590;2022-12-11T01:34:36;98927.47;;;-1.78;100.00
51526;BME280;37611;51.794;21.590;2022-12-11T01:38:38;98919.60;;;-1.86;100.00
51526;BME280;37611;51.794;21.590;2022-12-11T01:42:40;98910.76;;;-1.88;100.00
51526;BME280;37611;51.794;21.590;2022-12-11T01:46:42;98909.54;;;-1.88;100.00
51526;BME280;37611;51.794;21.590;2022-12-11T01:50:48;98910.70;;;-1.89;100.00
51526;BME280;37611;51.794;21.590;2022-12-11T01:54:51;98907.08;;;-1.94;100.00
51526;BME280;37611;51.794;21.590;2022-12-11T01:58:55;98900.14;;;-1.96;100.00
51526;BME280;37611;51.794;21.590;2022-12-11T02:02:58;98894.36;;;-1.97;100.00
51526;BME280;37611;51.794;21.590;2022-12-11T02:07:00;98891.89;;;-2.01;100.00
51526;BME280;37611;51.794;21.590;2022-12-11T02:11:05;98887.70;;;-2.05;100.00
51526;BME280;37611;51.794;21.590;2022-12-11T02:33:06;98881.79;;;-2.01;100.00
51526;BME280;37611;51.794;21.590;2022-12-11T02:37:20;98881.20;;;-1.98;100.00
51526;BME280;37611;51.794;21.590;2022-12-11T02:41:24;98883.64;;;-1.98;100.00
51526;BME280;37611;51.794;21.590;2022-12-11T02:45:27;98875.80;;;-1.99;100.00
51526;BME280;37611;51.794;21.590;2022-12-11T02:49:32;98874.79;;;-2.02;100.00
51526;BME280;37611;51.794;21.590;2022-12-11T02:53:37;98875.45;;;-2.01;100.00
51526;BME280;37611;51.794;21.590;2022-12-11T03:02:17;98873.54;;;-1.99;100.00
51526;BME280;37611;51.794;21.590;2022-12-11T03:06:21;98866.21;;;-1.99;100.00
51526;BME280;37611;51.794;21.590;2022-12-11T03:10:24;98867.83;;;-1.97;100.00
51526;BME280;37611;51.794;21.590;2022-12-11T03:14:26;98863.77;;;-2.01;100.00
51526;BME280;37611;51.794;21.590;2022-12-11T03:22:46;98863.89;;;-2.08;100.00
51526;BME280;37611;51.794;21.590;2022-12-11T03:26:54;98856.48;;;-2.07;100.00
51526;BME280;37611;51.794;21.590;2022-12-11T03:30:57;98854.95;;;-2.08;100.00
51526;BME280;37611;51.794;21.590;2022-12-11T03:35:12;98858.90;;;-2.08;100.00
51526;BME280;37611;51.794;21.590;2022-12-11T03:39:18;98855.67;;;-2.06;100.00
51526;BME280;37611;51.794;21.590;2022-12-11T03:43:22;98850.21;;;-2.01;100.00
51526;BME280;37611;51.794;21.590;2022-12-11T03:47:26;98850.82;;;-1.94;100.00
51526;BME280;37611;51.794;21.590;2022-12-11T03:51:31;98852.25;;;-1.93;100.00
51526;BME280;37611;51.794;21.590;2022-12-11T03:55:35;98841.41;;;-1.92;100.00
51526;BME280;37611;51.794;21.590;2022-12-11T03:59:38;98837.34;;;-1.93;100.00
51526;BME280;37611;51.794;21.590;2022-12-11T04:03:40;98841.12;;;-1.93;100.00
51526;BME280;37611;51.794;21.590;2022-12-11T04:07:42;98840.40;;;-1.98;100.00
51526;BME280;37611;51.794;21.590;2022-12-11T04:11:44;98841.08;;;-1.98;100.00
51526;BME280;37611;51.794;21.590;2022-12-11T04:15:45;98826.45;;;-1.94;100.00
51526;BME280;37611;51.794;21.590;2022-12-11T04:19:47;98828.62;;;-1.96;100.00
51526;BME280;37611;51.794;21.590;2022-12-11T04:24:08;98825.41;;;-1.94;100.00
51526;BME280;37611;51.794;21.590;2022-12-11T04:28:15;98819.20;;;-1.96;100.00
51526;BME280;37611;51.794;21.590;2022-12-11T04:32:17;98825.73;;;-1.99;100.00
51526;BME280;37611;51.794;21.590;2022-12-11T04:36:19;98822.36;;;-2.00;100.00
51526;BME280;37611;51.794;21.590;2022-12-11T04:40:21;98819.42;;;-2.00;100.00
51526;BME280;37611;51.794;21.590;2022-12-11T04:44:23;98818.82;;;-2.01;100.00
51526;BME280;37611;51.794;21.590;2022-12-11T04:48:25;98814.98;;;-2.03;100.00
51526;BME280;37611;51.794;21.590;2022-12-11T04:52:26;98803.19;;;-2.01;100.00
51526;BME280;37611;51.794;21.590;2022-12-11T04:56:28;98792.66;;;-2.00;100.00
51526;BME280;37611;51.794;21.590;2022-12-11T05:00:30;98784.23;;;-2.02;100.00
51526;BME280;37611;51.794;21.590;2022-12-11T05:04:33;98775.90;;;-2.03;100.00
51526;BME280;37611;51.794;21.590;2022-12-11T05:08:37;98772.27;;;-2.03;100.00
51526;BME280;37611;51.794;21.590;2022-12-11T05:12:39;98760.75;;;-2.05;100.00
51526;BME280;37611;51.794;21.590;2022-12-11T05:16:40;98750.45;;;-2.10;100.00
51526;BME280;37611;51.794;21.590;2022-12-11T05:20:42;98744.30;;;-2.18;100.00
51526;BME280;37611;51.794;21.590;2022-12-11T05:24:44;98741.92;;;-2.18;100.00
51526;BME280;37611;51.794;21.590;2022-12-11T05:28:50;98735.33;;;-2.17;100.00
51526;BME280;37611;51.794;21.590;2022-12-11T05:32:53;98727.48;;;-2.20;100.00
51526;BME280;37611;51.794;21.590;2022-12-11T05:36:55;98721.34;;;-2.21;100.00
51526;BME280;37611;51.794;21.590;2022-12-11T05:40:59;98721.71;;;-2.24;100.00
51526;BME280;37611;51.794;21.590;2022-12-11T05:45:01;98718.49;;;-2.27;100.00
51526;BME280;37611;51.794;21.590;2022-12-11T05:49:03;98717.26;;;-2.26;100.00
51526;BME280;37611;51.794;21.590;2022-12-11T05:53:05;98712.00;;;-2.27;100.00
51526;BME280;37611;51.794;21.590;2022-12-11T05:57:07;98707.50;;;-2.32;100.00
51526;BME280;37611;51.794;21.590;2022-12-11T06:01:12;98710.49;;;-2.33;100.00
51526;BME280;37611;51.794;21.590;2022-12-11T06:05:14;98719.66;;;-2.36;100.00
51526;BME280;37611;51.794;21.590;2022-12-11T06:09:16;98721.23;;;-2.37;100.00
51526;BME280;37611;51.794;21.590;2022-12-11T06:13:17;98729.63;;;-2.34;100.00
51526;BME280;37611;51.794;21.590;2022-12-11T06:17:19;98731.44;;;-2.38;100.00
51526;BME280;37611;51.794;21.590;2022-12-11T06:21:27;98734.73;;;-2.44;100.00
51526;BME280;37611;51.794;21.590;2022-12-11T06:25:30;98738.94;;;-2.51;100.00
51526;BME280;37611;51.794;21.590;2022-12-11T06:29:32;98739.88;;;-2.49;100.00
51526;BME280;37611;51.794;21.590;2022-12-11T06:33:34;98739.28;;;-2.51;100.00
51526;BME280;37611;51.794;21.590;2022-12-11T06:37:37;98729.64;;;-2.50;100.00
51526;BME280;37611;51.794;21.590;2022-12-11T06:41:40;98727.52;;;-2.52;100.00
51526;BME280;37611;51.794;21.590;2022-12-11T06:45:42;98722.48;;;-2.56;100.00
51526;BME280;37611;51.794;21.590;2022-12-11T06:49:44;98719.46;;;-2.59;100.00
51526;BME280;37611;51.794;21.590;2022-12-11T06:53:54;98715.83;;;-2.61;100.00
51526;BME280;37611;51.794;21.590;2022-12-11T06:57:56;98708.73;;;-2.63;100.00
51526;BME280;37611;51.794;21.590;2022-12-11T07:01:57;98706.81;;;-2.65;100.00
51526;BME280;37611;51.794;21.590;2022-12-11T07:06:00;98697.30;;;-2.72;100.00
51526;BME280;37611;51.794;21.590;2022-12-11T07:10:03;98697.70;;;-2.73;100.00
51526;BME280;37611;51.794;21.590;2022-12-11T07:14:05;98692.46;;;-2.71;100.00
51526;BME280;37611;51.794;21.590;2022-12-11T07:18:07;98686.34;;;-2.74;100.00
51526;BME280;37611;51.794;21.590;2022-12-11T07:22:09;98679.77;;;-2.79;100.00
51526;BME280;37611;51.794;21.590;2022-12-11T07:26:13;98676.78;;;-2.80;100.00
51526;BME280;37611;51.794;21.590;2022-12-11T07:30:16;98678.55;;;-2.81;100.00
51526;BME280;37611;51.794;21.590;2022-12-11T07:34:18;98674.80;;;-2.84;100.00
51526;BME280;37611;51.794;21.590;2022-12-11T07:38:19;98678.52;;;-2.86;100.00
51526;BME280;37611;51.794;21.590;2022-12-11T07:42:21;98676.45;;;-2.85;100.00
51526;BME280;37611;51.794;21.590;2022-12-11T07:46:25;98675.30;;;-2.86;100.00
51526;BME280;37611;51.794;21.590;2022-12-11T07:50:27;98671.50;;;-2.89;100.00
51526;BME280;37611;51.794;21.590;2022-12-11T07:54:29;98665.53;;;-2.91;100.00
51526;BME280;37611;51.794;21.590;2022-12-11T07:58:31;98661.81;;;-2.92;100.00
51526;BME280;37611;51.794;21.590;2022-12-11T08:02:33;98656.17;;;-2.89;100.00
51526;BME280;37611;51.794;21.590;2022-12-11T08:06:37;98653.06;;;-2.95;100.00
51526;BME280;37611;51.794;21.590;2022-12-11T08:10:39;98647.88;;;-2.97;100.00
51526;BME280;37611;51.794;21.590;2022-12-11T08:14:41;98644.89;;;-2.98;100.00
51526;BME280;37611;51.794;21.590;2022-12-11T08:18:44;98630.77;;;-2.97;100.00
51526;BME280;37611;51.794;21.590;2022-12-11T08:22:47;98628.73;;;-2.97;100.00
51526;BME280;37611;51.794;21.590;2022-12-11T08:26:49;98623.92;;;-2.97;100.00
51526;BME280;37611;51.794;21.590;2022-12-11T08:30:50;98618.63;;;-3.00;100.00
51526;BME280;37611;51.794;21.590;2022-12-11T08:34:52;98619.20;;;-2.98;100.00
51526;BME280;37611;51.794;21.590;2022-12-11T08:38:55;98622.70;;;-2.99;100.00
51526;BME280;37611;51.794;21.590;2022-12-11T08:42:57;98618.09;;;-3.02;100.00
51526;BME280;37611;51.794;21.590;2022-12-11T08:46:59;98625.84;;;-3.03;100.00
51526;BME280;37611;51.794;21.590;2022-12-11T08:51:02;98615.98;;;-3.01;100.00
51526;BME280;37611;51.794;21.590;2022-12-11T08:55:05;98614.30;;;-3.06;100.00
51526;BME280;37611;51.794;21.590;2022-12-11T08:59:07;98616.11;;;-3.08;100.00
51526;BME280;37611;51.794;21.590;2022-12-11T09:03:08;98610.30;;;-3.08;100.00
51526;BME280;37611;51.794;21.590;2022-12-11T09:07:10;98609.23;;;-3.08;100.00
51526;BME280;37611;51.794;21.590;2022-12-11T09:11:19;98597.50;;;-3.07;100.00
51526;BME280;37611;51.794;21.590;2022-12-11T09:15:21;98588.59;;;-3.04;100.00
51526;BME280;37611;51.794;21.590;2022-12-11T09:19:23;98578.19;;;-3.02;100.00
51526;BME280;37611;51.794;21.590;2022-12-11T09:23:24;98579.53;;;-2.99;100.00
51526;BME280;37611;51.794;21.590;2022-12-11T09:27:26;98573.07;;;-2.97;100.00
51526;BME280;37611;51.794;21.590;2022-12-11T09:31:30;98570.01;;;-2.92;100.00
51526;BME280;37611;51.794;21.590;2022-12-11T09:35:32;98549.95;;;-2.87;100.00
51526;BME280;37611;51.794;21.590;2022-12-11T09:39:34;98546.81;;;-2.88;100.00
51526;BME280;37611;51.794;21.590;2022-12-11T09:43:41;98542.58;;;-2.91;100.00
51526;BME280;37611;51.794;21.590;2022-12-11T09:47:48;98536.79;;;-2.95;100.00
51526;BME280;37611;51.794;21.590;2022-12-11T09:52:17;98531.08;;;-2.96;100.00
51526;BME280;37611;51.794;21.590;2022-12-11T09:56:25;98517.72;;;-3.01;100.00
51526;BME280;37611;51.794;21.590;2022-12-11T10:00:38;98514.78;;;-3.03;100.00
51526;BME280;37611;51.794;21.590;2022-12-11T10:05:56;98510.03;;;-3.02;100.00
51526;BME280;37611;51.794;21.590;2022-12-11T10:09:42;98507.79;;;-2.99;100.00
51526;BME280;37611;51.794;21.590;2022-12-11T10:14:12;98506.33;;;-2.95;100.00
51526;BME280;37611;51.794;21.590;2022-12-11T10:18:19;98489.42;;;-2.96;100.00
51526;BME280;37611;51.794;21.590;2022-12-11T10:22:26;98490.52;;;-2.97;100.00
51526;BME280;37611;51.794;21.590;2022-12-11T10:26:30;98488.80;;;-2.99;100.00
51526;BME280;37611;51.794;21.590;2022-12-11T10:30:36;98485.47;;;-2.98;100.00
51526;BME280;37611;51.794;21.590;2022-12-11T10:34:41;98489.54;;;-2.92;100.00
51526;BME280;37611;51.794;21.590;2022-12-11T10:38:45;98487.53;;;-2.88;100.00
51526;BME280;37611;51.794;21.590;2022-12-11T10:42:52;98482.40;;;-2.83;100.00
51526;BME280;37611;51.794;21.590;2022-12-11T10:51:07;98461.96;;;-2.73;100.00
51526;BME280;37611;51.794;21.590;2022-12-11T10:55:24;98450.42;;;-2.82;100.00
51526;BME280;37611;51.794;21.590;2022-12-11T10:59:33;98448.53;;;-2.87;100.00
51526;BME280;37611;51.794;21.590;2022-12-11T11:03:50;98440.34;;;-2.97;100.00
51526;BME280;37611;51.794;21.590;2022-12-11T11:08:11;98439.16;;;-2.92;100.00
51526;BME280;37611;51.794;21.590;2022-12-11T11:16:20;98433.14;;;-2.86;100.00
51526;BME280;37611;51.794;21.590;2022-12-11T11:20:28;98432.70;;;-2.80;100.00
51526;BME280;37611;51.794;21.590;2022-12-11T11:24:35;98431.84;;;-2.80;100.00
51526;BME280;37611;51.794;21.590;2022-12-11T11:28:47;98425.81;;;-2.82;100.00
51526;BME280;37611;51.794;21.590;2022-12-11T11:32:56;98418.20;;;-2.91;100.00
51526;BME280;37611;51.794;21.590;2022-12-11T11:36:58;98410.98;;;-2.93;100.00
51526;BME280;37611;51.794;21.590;2022-12-11T11:41:14;98410.87;;;-2.91;100.00
51526;BME280;37611;51.794;21.590;2022-12-11T11:45:28;98408.82;;;-2.89;100.00
51526;BME280;37611;51.794;21.590;2022-12-11T11:54:00;98401.40;;;-2.88;100.00
51526;BME280;37611;51.794;21.590;2022-12-11T11:58:18;98397.58;;;-2.95;100.00
51526;BME280;37611;51.794;21.590;2022-12-11T12:02:23;98401.67;;;-3.02;100.00
51526;BME280;37611;51.794;21.590;2022-12-11T12:11:08;98401.30;;;-3.12;100.00
51526;BME280;37611;51.794;21.590;2022-12-11T12:28:21;98404.45;;;-3.05;100.00
51526;BME280;37611;51.794;21.590;2022-12-11T12:41:15;98409.73;;;-3.05;100.00
51526;BME280;37611;51.794;21.590;2022-12-11T12:49:40;98401.58;;;-3.18;100.00
51526;BME280;37611;51.794;21.590;2022-12-11T12:53:55;98401.88;;;-3.28;100.00
51526;BME280;37611;51.794;21.590;2022-12-11T12:58:00;98405.23;;;-3.24;100.00
51526;BME280;37611;51.794;21.590;2022-12-11T13:02:03;98404.38;;;-3.19;100.00
51526;BME280;37611;51.794;21.590;2022-12-11T13:06:09;98408.10;;;-3.23;100.00
51526;BME280;37611;51.794;21.590;2022-12-11T13:10:31;98410.27;;;-3.25;100.00
51526;BME280;37611;51.794;21.590;2022-12-11T13:14:33;98407.66;;;-3.29;100.00
51526;BME280;37611;51.794;21.590;2022-12-11T13:18:37;98413.41;;;-3.34;100.00
51526;BME280;37611;51.794;21.590;2022-12-11T13:22:52;98414.31;;;-3.42;100.00
51526;BME280;37611;51.794;21.590;2022-12-11T13:26:55;98413.10;;;-3.47;100.00
51526;BME280;37611;51.794;21.590;2022-12-11T13:35:16;98409.42;;;-3.40;100.00
51526;BME280;37611;51.794;21.590;2022-12-11T13:39:21;98405.40;;;-3.41;100.00
51526;BME280;37611;51.794;21.590;2022-12-11T13:43:26;98401.29;;;-3.37;100.00
51526;BME280;37611;51.794;21.590;2022-12-11T13:47:30;98402.39;;;-3.35;100.00
51526;BME280;37611;51.794;21.590;2022-12-11T13:51:33;98388.05;;;-3.38;100.00
51526;BME280;37611;51.794;21.590;2022-12-11T13:55:38;98382.70;;;-3.45;100.00
51526;BME280;37611;51.794;21.590;2022-12-11T13:59:42;98387.15;;;-3.53;100.00
51526;BME280;37611;51.794;21.590;2022-12-11T14:03:57;98388.85;;;-3.53;100.00
51526;BME280;37611;51.794;21.590;2022-12-11T14:08:05;98386.27;;;-3.55;100.00
51526;BME280;37611;51.794;21.590;2022-12-11T14:12:19;98387.41;;;-3.54;100.00
51526;BME280;37611;51.794;21.590;2022-12-11T14:16:23;98385.33;;;-3.51;100.00
51526;BME280;37611;51.794;21.590;2022-12-11T14:20:29;98381.48;;;-3.53;100.00
51526;BME280;37611;51.794;21.590;2022-12-11T14:24:32;98369.33;;;-3.58;100.00
51526;BME280;37611;51.794;21.590;2022-12-11T14:28:36;98362.45;;;-3.64;100.00
51526;BME280;37611;51.794;21.590;2022-12-11T14:32:41;98362.33;;;-3.75;100.00
51526;BME280;37611;51.794;21.590;2022-12-11T14:36:46;98363.84;;;-3.85;100.00
51526;BME280;37611;51.794;21.590;2022-12-11T14:40:54;98360.29;;;-3.86;100.00
51526;BME280;37611;51.794;21.590;2022-12-11T14:49:14;98371.73;;;-3.80;100.00
51526;BME280;37611;51.794;21.590;2022-12-11T14:53:31;98374.21;;;-3.82;100.00
51526;BME280;37611;51.794;21.590;2022-12-11T14:57:35;98390.33;;;-3.77;100.00
51526;BME280;37611;51.794;21.590;2022-12-11T15:01:37;98402.52;;;-3.73;100.00
51526;BME280;37611;51.794;21.590;2022-12-11T15:05:50;98399.04;;;-3.77;100.00
51526;BME280;37611;51.794;21.590;2022-12-11T15:09:52;98401.42;;;-3.77;100.00
51526;BME280;37611;51.794;21.590;2022-12-11T15:13:56;98401.27;;;-3.82;100.00
51526;BME280;37611;51.794;21.590;2022-12-11T15:18:00;98398.05;;;-3.88;100.00
51526;BME280;37611;51.794;21.590;2022-12-11T15:22:08;98395.38;;;-3.92;100.00
51526;BME280;37611;51.794;21.590;2022-12-11T15:26:13;98394.80;;;-3.88;100.00
51526;BME280;37611;51.794;21.590;2022-12-11T15:34:31;98375.33;;;-3.78;100.00
51526;BME280;37611;51.794;21.590;2022-12-11T15:38:36;98376.95;;;-3.77;100.00
51526;BME280;37611;51.794;21.590;2022-12-11T15:42:41;98380.53;;;-3.74;100.00
51526;BME280;37611;51.794;21.590;2022-12-11T15:46:43;98385.39;;;-3.75;100.00
51526;BME280;37611;51.794;21.590;2022-12-11T15:50:45;98386.48;;;-3.76;100.00
51526;BME280;37611;51.794;21.590;2022-12-11T15:54:47;98381.86;;;-3.84;100.00
51526;BME280;37611;51.794;21.590;2022-12-11T15:58:49;98375.98;;;-3.85;100.00
51526;BME280;37611;51.794;21.590;2022-12-11T16:02:51;98384.80;;;-3.82;100.00
51526;BME280;37611;51.794;21.590;2022-12-11T16:06:54;98395.07;;;-3.79;100.00
51526;BME280;37611;51.794;21.590;2022-12-11T16:10:56;98401.00;;;-3.73;100.00
51526;BME280;37611;51.794;21.590;2022-12-11T16:14:58;98404.73;;;-3.70;100.00
51526;BME280;37611;51.794;21.590;2022-12-11T16:19:00;98418.64;;;-3.68;100.00
51526;BME280;37611;51.794;21.590;2022-12-11T16:23:02;98418.19;;;-3.69;100.00
51526;BME280;37611;51.794;21.590;2022-12-11T16:27:06;98418.85;;;-3.77;100.00
51526;BME280;37611;51.794;21.590;2022-12-11T16:31:14;98412.15;;;-3.79;100.00
51526;BME280;37611;51.794;21.590;2022-12-11T16:35:16;98416.88;;;-3.83;100.00
51526;BME280;37611;51.794;21.590;2022-12-11T16:39:19;98418.69;;;-3.82;100.00
51526;BME280;37611;51.794;21.590;2022-12-11T16:43:21;98418.16;;;-3.79;100.00
51526;BME280;37611;51.794;21.590;2022-12-11T16:47:22;98419.95;;;-3.80;100.00
51526;BME280;37611;51.794;21.590;2022-12-11T16:51:24;98421.80;;;-3.75;100.00
51526;BME280;37611;51.794;21.590;2022-12-11T16:55:26;98413.55;;;-3.74;100.00
51526;BME280;37611;51.794;21.590;2022-12-11T16:59:28;98411.58;;;-3.75;100.00
51526;BME280;37611;51.794;21.590;2022-12-11T17:03:30;98415.43;;;-3.77;100.00
51526;BME280;37611;51.794;21.590;2022-12-11T17:07:32;98419.09;;;-3.85;100.00
51526;BME280;37611;51.794;21.590;2022-12-11T17:11:35;98418.09;;;-3.88;100.00
51526;BME280;37611;51.794;21.590;2022-12-11T17:15:41;98414.51;;;-3.91;100.00
51526;BME280;37611;51.794;21.590;2022-12-11T17:19:43;98405.65;;;-3.91;100.00
51526;BME280;37611;51.794;21.590;2022-12-11T17:23:45;98411.91;;;-3.88;100.00
51526;BME280;37611;51.794;21.590;2022-12-11T17:27:47;98412.29;;;-3.83;100.00
51526;BME280;37611;51.794;21.590;2022-12-11T17:31:49;98418.59;;;-3.80;100.00
51526;BME280;37611;51.794;21.590;2022-12-11T17:35:50;98426.71;;;-3.77;100.00
51526;BME280;37611;51.794;21.590;2022-12-11T17:39:52;98431.92;;;-3.78;100.00
51526;BME280;37611;51.794;21.590;2022-12-11T17:43:54;98427.30;;;-3.83;100.00
51526;BME280;37611;51.794;21.590;2022-12-11T17:47:56;98430.63;;;-3.89;100.00
51526;BME280;37611;51.794;21.590;2022-12-11T17:51:58;98435.23;;;-3.97;100.00
51526;BME280;37611;51.794;21.590;2022-12-11T17:56:02;98430.69;;;-4.01;100.00
51526;BME280;37611;51.794;21.590;2022-12-11T18:00:04;98425.23;;;-3.98;100.00
51526;BME280;37611;51.794;21.590;2022-12-11T18:04:07;98422.58;;;-3.94;100.00
51526;BME280;37611;51.794;21.590;2022-12-11T18:08:13;98411.55;;;-3.88;100.00
51526;BME280;37611;51.794;21.590;2022-12-11T18:12:15;98411.70;;;-3.87;100.00
51526;BME280;37611;51.794;21.590;2022-12-11T18:16:23;98409.98;;;-3.84;100.00
51526;BME280;37611;51.794;21.590;2022-12-11T18:20:25;98401.14;;;-3.85;100.00
51526;BME280;37611;51.794;21.590;2022-12-11T18:24:27;98395.77;;;-3.89;100.00
51526;BME280;37611;51.794;21.590;2022-12-11T18:28:32;98389.19;;;-3.97;100.00
51526;BME280;37611;51.794;21.590;2022-12-11T18:32:34;98380.69;;;-4.00;100.00
51526;BME280;37611;51.794;21.590;2022-12-11T18:36:35;98388.52;;;-4.04;100.00
51526;BME280;37611;51.794;21.590;2022-12-11T18:40:37;98399.89;;;-4.06;100.00
51526;BME280;37611;51.794;21.590;2022-12-11T18:44:39;98402.66;;;-4.04;100.00
51526;BME280;37611;51.794;21.590;2022-12-11T18:48:44;98408.04;;;-4.00;100.00
51526;BME280;37611;51.794;21.590;2022-12-11T18:52:46;98409.27;;;-3.95;100.00
51526;BME280;37611;51.794;21.590;2022-12-11T18:56:52;98409.06;;;-3.97;100.00
51526;BME280;37611;51.794;21.590;2022-12-11T19:00:54;98412.23;;;-3.98;100.00
51526;BME280;37611;51.794;21.590;2022-12-11T19:04:56;98411.50;;;-4.00;100.00
51526;BME280;37611;51.794;21.590;2022-12-11T19:08:58;98408.77;;;-4.00;100.00
51526;BME280;37611;51.794;21.590;2022-12-11T19:13:00;98410.91;;;-4.07;100.00
51526;BME280;37611;51.794;21.590;2022-12-11T19:17:02;98412.48;;;-4.13;100.00
51526;BME280;37611;51.794;21.590;2022-12-11T19:21:08;98415.65;;;-4.11;100.00
51526;BME280;37611;51.794;21.590;2022-12-11T19:25:10;98411.21;;;-4.11;100.00
51526;BME280;37611;51.794;21.590;2022-12-11T19:29:20;98412.90;;;-4.09;100.00
51526;BME280;37611;51.794;21.590;2022-12-11T19:33:22;98423.92;;;-4.07;100.00
51526;BME280;37611;51.794;21.590;2022-12-11T19:37:24;98436.59;;;-4.05;100.00
51526;BME280;37611;51.794;21.590;2022-12-11T19:41:26;98439.35;;;-4.03;100.00
51526;BME280;37611;51.794;21.590;2022-12-11T19:45:28;98436.51;;;-4.06;100.00
51526;BME280;37611;51.794;21.590;2022-12-11T19:49:30;98431.02;;;-4.08;100.00
51526;BME280;37611;51.794;21.590;2022-12-11T19:53:33;98422.89;;;-4.12;100.00
51526;BME280;37611;51.794;21.590;2022-12-11T19:57:35;98413.63;;;-4.20;100.00
51526;BME280;37611;51.794;21.590;2022-12-11T20:01:37;98411.08;;;-4.23;100.00
51526;BME280;37611;51.794;21.590;2022-12-11T20:05:39;98424.46;;;-4.21;100.00
51526;BME280;37611;51.794;21.590;2022-12-11T20:09:41;98425.76;;;-4.17;100.00
51526;BME280;37611;51.794;21.590;2022-12-11T20:13:42;98420.10;;;-4.14;100.00
51526;BME280;37611;51.794;21.590;2022-12-11T20:17:46;98422.49;;;-4.11;100.00
51526;BME280;37611;51.794;21.590;2022-12-11T20:21:48;98433.70;;;-4.16;100.00
51526;BME280;37611;51.794;21.590;2022-12-11T20:25:49;98431.13;;;-4.21;100.00
51526;BME280;37611;51.794;21.590;2022-12-11T20:29:51;98430.09;;;-4.29;100.00
51526;BME280;37611;51.794;21.590;2022-12-11T20:33:55;98434.77;;;-4.29;100.00
51526;BME280;37611;51.794;21.590;2022-12-11T20:37:57;98439.47;;;-4.28;100.00
51526;BME280;37611;51.794;21.590;2022-12-11T20:41:58;98439.69;;;-4.27;100.00
51526;BME280;37611;51.794;21.590;2022-12-11T20:46:04;98438.73;;;-4.23;100.00
51526;BME280;37611;51.794;21.590;2022-12-11T20:50:07;98438.09;;;-4.20;100.00
51526;BME280;37611;51.794;21.590;2022-12-11T20:54:11;98436.50;;;-4.19;100.00
51526;BME280;37611;51.794;21.590;2022-12-11T20:58:13;98438.04;;;-4.19;100.00
51526;BME280;37611;51.794;21.590;2022-12-11T21:02:15;98430.97;;;-4.24;100.00
51526;BME280;37611;51.794;21.590;2022-12-11T21:06:19;98428.14;;;-4.28;100.00
51526;BME280;37611;51.794;21.590;2022-12-11T21:10:21;98430.36;;;-4.33;100.00
51526;BME280;37611;51.794;21.590;2022-12-11T21:14:23;98434.73;;;-4.29;100.00
51526;BME280;37611;51.794;21.590;2022-12-11T21:18:25;98434.63;;;-4.28;100.00
51526;BME280;37611;51.794;21.590;2022-12-11T21:22:27;98439.20;;;-4.21;100.00
51526;BME280;37611;51.794;21.590;2022-12-11T21:26:29;98442.77;;;-4.16;100.00
51526;BME280;37611;51.794;21.590;2022-12-11T21:30:30;98447.53;;;-4.13;100.00
51526;BME280;37611;51.794;21.590;2022-12-11T21:34:32;98446.29;;;-4.12;100.00
51526;BME280;37611;51.794;21.590;2022-12-11T21:38:34;98439.29;;;-4.18;100.00
51526;BME280;37611;51.794;21.590;2022-12-11T21:42:36;98432.33;;;-4.21;100.00
51526;BME280;37611;51.794;21.590;2022-12-11T21:46:37;98432.10;;;-4.20;100.00
51526;BME280;37611;51.794;21.590;2022-12-11T21:50:40;98426.71;;;-4.21;100.00
51526;BME280;37611;51.794;21.590;2022-12-11T21:54:43;98415.67;;;-4.17;100.00
51526;BME280;37611;51.794;21.590;2022-12-11T21:58:45;98416.19;;;-4.14;100.00
51526;BME280;37611;51.794;21.590;2022-12-11T22:02:48;98426.65;;;-4.07;100.00
51526;BME280;37611;51.794;21.590;2022-12-11T22:06:51;98433.18;;;-4.08;100.00
51526;BME280;37611;51.794;21.590;2022-12-11T22:10:53;98436.47;;;-4.08;100.00
51526;BME280;37611;51.794;21.590;2022-12-11T22:14:55;98444.64;;;-4.16;100.00
51526;BME280;37611;51.794;21.590;2022-12-11T22:18:57;98452.11;;;-4.20;100.00
51526;BME280;37611;51.794;21.590;2022-12-11T22:22:58;98452.76;;;-4.25;100.00